Time;durP1;ratioP1;P1;durP2;ratioP2;P2;SDS_P1;SDS_P2;PMS_P1;PMS_P2;Temp;Humidity;BMP_temperature;BMP_pressure;BME280_temperature;BME280_humidity;BME280_pressure;Samples;Min_cycle;Max_cycle;Signal;HPM_P1;HPM_P2
2022/10/07 00:00:15;;;;;;;;;20.25;20.25;;;;;;;;5054233;28;45284;-78
2022/10/07 00:02:41;;;;;;;;;21.00;19.75;;;;;;;;5053986;28;45369;-77
2022/10/07 00:05:06;;;;;;;;;23.25;20.00;;;;;;;;5048968;28;45221;-78
2022/10/07 00:07:31;;;;;;;;;27.75;22.00;;;;;;;;5056362;28;45498;-78
2022/10/07 00:09:57;;;;;;;;;24.50;20.25;;;;;;;;5056892;28;45561;-77
2022/10/07 00:12:22;;;;;;;;;17.75;17.50;;;;;;;;5059946;28;46299;-78
2022/10/07 00:14:47;;;;;;;;;21.50;17.25;;;;;;;;5060845;28;45216;-77
2022/10/07 00:17:12;;;;;;;;;18.00;16.50;;;;;;;;5055602;28;45200;-77
2022/10/07 00:19:38;;;;;;;;;20.50;15.75;;;;;;;;5049770;28;45589;-77
2022/10/07 00:22:03;;;;;;;;;18.25;17.50;;;;;;;;5087099;27;46234;-78
2022/10/07 00:24:28;;;;;;;;;16.75;16.00;;;;;;;;5051487;28;45320;-77
2022/10/07 00:26:53;;;;;;;;;22.50;19.00;;;;;;;;5057698;28;45379;-78
2022/10/07 00:29:18;;;;;;;;;17.75;15.00;;;;;;;;5060245;28;45285;-77
2022/10/07 00:31:44;;;;;;;;;16.25;16.25;;;;;;;;5060775;28;45418;-77
2022/10/07 00:34:10;;;;;;;;;16.75;14.50;;;;;;;;5060537;28;45453;-78
2022/10/07 00:36:36;;;;;;;;;22.25;16.00;;;;;;;;5062903;28;45287;-77
2022/10/07 00:39:11;;;;;;;;;17.00;15.75;;;;;;;;5057074;28;45489;-77
2022/10/07 00:41:38;;;;;;;;;16.00;16.00;;;;;;;;5058789;28;46208;-77
2022/10/07 00:44:22;;;;;;;;;16.75;14.50;;;;;;;;5059309;28;45223;-77
2022/10/07 00:46:47;;;;;;;;;16.50;15.00;;;;;;;;5060657;28;45434;-78
2022/10/07 00:49:12;;;;;;;;;17.75;14.00;;;;;;;;5058885;28;46576;-77
2022/10/07 00:51:38;;;;;;;;;16.75;13.75;;;;;;;;5054747;28;45361;-77
2022/10/07 00:54:05;;;;;;;;;14.50;14.50;;;;;;;;5048128;28;45209;-77
2022/10/07 00:56:31;;;;;;;;;22.75;16.75;;;;;;;;5049770;28;45396;-77
2022/10/07 00:58:59;;;;;;;;;17.75;14.50;;;;;;;;5051256;28;45713;-77
2022/10/07 01:01:25;;;;;;;;;14.00;11.25;;;;;;;;5049988;28;45330;-78
2022/10/07 01:03:51;;;;;;;;;16.00;13.00;;;;;;;;5053481;28;45465;-77
2022/10/07 01:06:16;;;;;;;;;16.50;12.75;;;;;;;;5051707;28;45351;-77
2022/10/07 01:08:42;;;;;;;;;17.00;12.25;;;;;;;;5055242;28;45347;-77
2022/10/07 01:11:17;;;;;;;;;13.00;12.00;;;;;;;;5054579;28;45542;-77
2022/10/07 01:13:51;;;;;;;;;10.75;9.75;;;;;;;;5061459;28;45330;-77
2022/10/07 01:16:16;;;;;;;;;15.75;14.50;;;;;;;;5057251;28;45476;-77
2022/10/07 01:18:47;;;;;;;;;14.50;13.00;;;;;;;;5059409;28;45326;-77
2022/10/07 01:21:13;;;;;;;;;16.75;12.00;;;;;;;;5059111;28;45437;-78
2022/10/07 01:23:38;;;;;;;;;14.75;13.00;;;;;;;;5053934;28;45515;-77
2022/10/07 01:26:22;;;;;;;;;16.25;13.75;;;;;;;;5049966;28;45418;-77
2022/10/07 01:28:55;;;;;;;;;14.25;11.50;;;;;;;;5056367;28;46214;-77
2022/10/07 01:31:26;;;;;;;;;14.00;13.25;;;;;;;;5053301;28;45339;-77
2022/10/07 01:33:52;;;;;;;;;11.75;8.50;;;;;;;;5057073;28;45260;-77
2022/10/07 01:36:20;;;;;;;;;17.00;13.00;;;;;;;;5059842;28;45466;-77
2022/10/07 01:38:55;;;;;;;;;13.50;10.50;;;;;;;;5057221;28;45267;-78
2022/10/07 01:41:22;;;;;;;;;14.75;11.00;;;;;;;;5056948;28;45414;-78
2022/10/07 01:43:51;;;;;;;;;11.00;10.00;;;;;;;;5058301;28;45473;-78
2022/10/07 01:46:20;;;;;;;;;12.00;12.00;;;;;;;;5059098;28;45272;-78
2022/10/07 01:48:45;;;;;;;;;14.75;12.75;;;;;;;;5061902;28;45426;-78
2022/10/07 01:51:11;;;;;;;;;14.50;12.75;;;;;;;;5051507;28;45980;-78
2022/10/07 01:53:43;;;;;;;;;12.25;11.25;;;;;;;;5048949;28;45215;-78
2022/10/07 01:56:27;;;;;;;;;12.25;10.50;;;;;;;;5077861;27;45393;-77
2022/10/07 01:59:01;;;;;;;;;13.50;12.00;;;;;;;;5065462;28;46121;-78
2022/10/07 02:01:38;;;;;;;;;10.75;8.75;;;;;;;;5049769;28;45318;-78
2022/10/07 02:04:15;;;;;;;;;15.50;13.25;;;;;;;;5053923;28;45277;-78
2022/10/07 02:06:50;;;;;;;;;12.50;12.50;;;;;;;;5046954;28;45146;-78
2022/10/07 02:09:31;;;;;;;;;13.00;10.00;;;;;;;;5058666;28;47195;-79
2022/10/07 02:12:29;;;;;;;;;13.00;13.00;;;;;;;;5054390;28;46123;-77
2022/10/07 02:15:07;;;;;;;;;16.25;12.75;;;;;;;;5025442;28;45580;-77
2022/10/07 02:17:36;;;;;;;;;11.75;11.75;;;;;;;;5048201;28;45394;-77
2022/10/07 02:20:03;;;;;;;;;13.75;13.75;;;;;;;;5044882;28;45474;-77
2022/10/07 02:22:30;;;;;;;;;12.00;12.00;;;;;;;;5050877;28;45623;-78
2022/10/07 02:24:57;;;;;;;;;15.00;13.75;;;;;;;;5060683;28;45356;-77
2022/10/07 02:27:26;;;;;;;;;16.25;14.00;;;;;;;;5050393;28;45308;-77
2022/10/07 02:29:53;;;;;;;;;19.75;17.25;;;;;;;;5050547;28;45370;-77
2022/10/07 02:32:19;;;;;;;;;23.25;18.00;;;;;;;;5050203;28;46125;-77
2022/10/07 02:34:47;;;;;;;;;20.00;18.50;;;;;;;;5052985;28;45240;-78
2022/10/07 02:37:24;;;;;;;;;20.75;15.50;;;;;;;;5071245;27;45407;-77
2022/10/07 02:39:50;;;;;;;;;19.50;15.00;;;;;;;;5054075;28;45455;-78
2022/10/07 02:42:34;;;;;;;;;12.75;11.00;;;;;;;;5054364;28;45453;-78
2022/10/07 02:45:14;;;;;;;;;18.25;13.00;;;;;;;;5057042;28;45276;-78
2022/10/07 02:47:44;;;;;;;;;16.75;15.00;;;;;;;;5057912;28;45422;-77
2022/10/07 02:50:12;;;;;;;;;13.25;10.25;;;;;;;;5057642;28;45363;-77
2022/10/07 02:52:39;;;;;;;;;15.00;14.00;;;;;;;;5046070;28;46397;-77
2022/10/07 02:55:10;;;;;;;;;11.50;10.25;;;;;;;;5040326;28;45379;-78
2022/10/07 02:57:41;;;;;;;;;12.00;12.00;;;;;;;;5050986;28;45448;-78
2022/10/07 03:00:07;;;;;;;;;13.50;12.50;;;;;;;;5075494;27;47045;-78
2022/10/07 03:02:52;;;;;;;;;16.25;11.50;;;;;;;;5062020;28;46952;-77
2022/10/07 03:05:19;;;;;;;;;12.75;11.00;;;;;;;;5055802;28;45878;-77
2022/10/07 03:07:45;;;;;;;;;14.00;12.00;;;;;;;;5052438;27;45358;-78
2022/10/07 03:10:10;;;;;;;;;14.75;12.00;;;;;;;;5055787;28;45541;-78
2022/10/07 03:12:35;;;;;;;;;16.25;13.00;;;;;;;;5054378;28;45311;-78
2022/10/07 03:15:01;;;;;;;;;14.50;13.00;;;;;;;;5053073;28;45283;-77
2022/10/07 03:17:26;;;;;;;;;17.75;13.75;;;;;;;;5049709;28;45572;-78
2022/10/07 03:19:51;;;;;;;;;15.25;10.75;;;;;;;;5057636;28;45409;-78
2022/10/07 03:22:16;;;;;;;;;16.00;15.25;;;;;;;;5052643;28;46662;-78
2022/10/07 03:24:41;;;;;;;;;12.75;12.50;;;;;;;;5045127;28;45285;-77
2022/10/07 03:27:08;;;;;;;;;15.50;14.00;;;;;;;;5069371;27;45288;-78
2022/10/07 03:29:34;;;;;;;;;16.00;12.00;;;;;;;;5051139;28;45814;-78
2022/10/07 03:32:00;;;;;;;;;12.00;12.00;;;;;;;;5051662;28;48605;-77
2022/10/07 03:34:26;;;;;;;;;14.75;14.25;;;;;;;;5054259;28;45189;-78
2022/10/07 03:36:51;;;;;;;;;18.50;13.75;;;;;;;;5056065;28;45215;-78
2022/10/07 03:39:16;;;;;;;;;24.75;15.00;;;;;;;;5042461;28;45462;-78
2022/10/07 03:41:41;;;;;;;;;19.25;17.50;;;;;;;;5048204;28;46361;-77
2022/10/07 03:44:07;;;;;;;;;21.25;15.25;;;;;;;;5050370;28;45391;-77
2022/10/07 03:46:32;;;;;;;;;15.75;13.00;;;;;;;;5053535;28;45162;-78
2022/10/07 03:48:57;;;;;;;;;14.00;13.00;;;;;;;;5053537;28;45181;-78
2022/10/07 03:51:23;;;;;;;;;13.00;12.00;;;;;;;;5055599;28;45974;-78
2022/10/07 03:53:48;;;;;;;;;12.00;11.25;;;;;;;;5056015;28;45162;-77
2022/10/07 03:56:13;;;;;;;;;11.75;11.00;;;;;;;;5054745;28;45809;-77
2022/10/07 03:58:39;;;;;;;;;13.50;13.50;;;;;;;;5085031;27;45576;-79
2022/10/07 04:01:05;;;;;;;;;16.50;13.50;;;;;;;;5058088;28;47305;-79
2022/10/07 04:03:30;;;;;;;;;15.00;13.25;;;;;;;;5055793;28;45344;-77
2022/10/07 04:05:59;;;;;;;;;13.25;10.75;;;;;;;;5054892;28;45280;-78
2022/10/07 04:08:26;;;;;;;;;13.75;11.50;;;;;;;;5058857;28;46618;-79
2022/10/07 04:10:52;;;;;;;;;11.50;10.25;;;;;;;;5054840;28;46923;-78
2022/10/07 04:13:17;;;;;;;;;10.75;10.25;;;;;;;;5062325;28;44646;-78
2022/10/07 04:15:42;;;;;;;;;13.00;11.75;;;;;;;;5049828;28;45466;-79
2022/10/07 04:18:08;;;;;;;;;13.25;10.75;;;;;;;;5055482;28;45237;-79
2022/10/07 04:20:36;;;;;;;;;18.25;13.00;;;;;;;;5058816;28;48455;-79
2022/10/07 04:23:01;;;;;;;;;6.00;6.00;;;;;;;;5054523;28;45437;-79
2022/10/07 04:25:32;;;;;;;;;12.50;11.75;;;;;;;;5052261;28;45352;-78
2022/10/07 04:27:58;;;;;;;;;14.50;13.00;;;;;;;;5056051;28;45485;-79
2022/10/07 04:30:25;;;;;;;;;14.25;13.25;;;;;;;;5054816;28;45483;-79
2022/10/07 04:32:51;;;;;;;;;9.75;8.50;;;;;;;;5060738;28;45276;-78
2022/10/07 04:35:17;;;;;;;;;14.00;11.00;;;;;;;;5056988;28;47833;-78
2022/10/07 04:37:42;;;;;;;;;15.00;9.75;;;;;;;;5057912;28;45228;-78
2022/10/07 04:40:08;;;;;;;;;13.00;11.00;;;;;;;;5059314;28;45304;-78
2022/10/07 04:45:17;;;;;;;;;14.75;12.75;;;;;;;;5060718;28;45307;-78
2022/10/07 04:47:43;;;;;;;;;15.75;14.00;;;;;;;;5051905;28;45343;-78
2022/10/07 04:50:08;;;;;;;;;11.75;11.75;;;;;;;;5063022;28;46192;-78
2022/10/07 04:52:34;;;;;;;;;13.00;13.00;;;;;;;;5055378;28;45234;-78
2022/10/07 04:54:59;;;;;;;;;11.75;11.75;;;;;;;;5050220;28;45344;-79
2022/10/07 04:57:24;;;;;;;;;16.00;12.25;;;;;;;;5089246;27;45742;-79
2022/10/07 04:59:49;;;;;;;;;16.00;11.75;;;;;;;;5052392;28;45343;-78
2022/10/07 05:02:14;;;;;;;;;16.25;12.25;;;;;;;;5051888;28;45641;-77
2022/10/07 05:04:40;;;;;;;;;18.75;13.00;;;;;;;;5054547;28;45175;-78
2022/10/07 05:07:05;;;;;;;;;10.75;7.25;;;;;;;;5053156;28;45196;-78
2022/10/07 05:09:30;;;;;;;;;18.00;12.00;;;;;;;;5048539;28;45321;-78
2022/10/07 05:11:55;;;;;;;;;12.25;12.25;;;;;;;;5052399;28;45418;-78
2022/10/07 05:14:21;;;;;;;;;13.00;10.00;;;;;;;;5056866;28;45241;-78
2022/10/07 05:16:47;;;;;;;;;17.25;12.25;;;;;;;;5052030;28;45391;-78
2022/10/07 05:19:12;;;;;;;;;15.50;10.50;;;;;;;;5056993;28;46534;-78
2022/10/07 05:21:37;;;;;;;;;10.50;10.50;;;;;;;;5052185;28;45271;-78
2022/10/07 05:24:03;;;;;;;;;13.00;11.50;;;;;;;;5059296;28;45444;-79
2022/10/07 05:26:28;;;;;;;;;16.00;13.00;;;;;;;;5056360;28;46954;-78
2022/10/07 05:28:53;;;;;;;;;16.50;13.00;;;;;;;;5059552;28;45404;-77
2022/10/07 05:31:19;;;;;;;;;12.50;11.75;;;;;;;;5053675;28;45373;-77
2022/10/07 05:33:45;;;;;;;;;18.50;16.75;;;;;;;;5059943;28;45386;-76
2022/10/07 05:36:11;;;;;;;;;15.75;13.25;;;;;;;;5071810;27;46595;-77
2022/10/07 05:38:36;;;;;;;;;15.00;13.00;;;;;;;;5069939;27;47035;-78
2022/10/07 05:41:03;;;;;;;;;20.00;14.25;;;;;;;;5056052;28;45501;-78
2022/10/07 05:43:29;;;;;;;;;15.25;12.75;;;;;;;;5059684;28;45304;-78
2022/10/07 05:45:59;;;;;;;;;17.50;16.50;;;;;;;;5046968;28;45237;-80
2022/10/07 05:48:25;;;;;;;;;18.75;14.75;;;;;;;;5050528;28;46189;-78
2022/10/07 05:50:50;;;;;;;;;17.50;16.75;;;;;;;;5046510;28;45424;-77
2022/10/07 05:53:15;;;;;;;;;14.75;12.00;;;;;;;;5051734;28;45453;-78
2022/10/07 05:55:40;;;;;;;;;18.50;17.00;;;;;;;;5055233;28;45802;-77
2022/10/07 05:58:05;;;;;;;;;15.75;14.00;;;;;;;;5057195;28;46083;-77
2022/10/07 06:00:31;;;;;;;;;18.75;13.50;;;;;;;;5056640;28;45378;-78
2022/10/07 06:02:57;;;;;;;;;15.50;12.75;;;;;;;;5058107;28;45245;-77
2022/10/07 06:05:22;;;;;;;;;17.00;14.25;;;;;;;;5081571;27;46784;-78
2022/10/07 06:07:48;;;;;;;;;23.25;18.25;;;;;;;;5087484;27;46768;-78
2022/10/07 06:13:09;;;;;;;;;16.50;15.25;;;;;;;;5056395;28;45262;-77
2022/10/07 06:15:35;;;;;;;;;15.50;12.00;;;;;;;;5055980;28;45325;-78
2022/10/07 06:18:00;;;;;;;;;16.25;15.50;;;;;;;;5070585;28;46933;-78
2022/10/07 06:20:25;;;;;;;;;19.00;14.50;;;;;;;;5057681;28;45214;-78
2022/10/07 06:22:54;;;;;;;;;16.25;14.50;;;;;;;;5059446;28;45571;-78
2022/10/07 06:25:20;;;;;;;;;18.25;15.00;;;;;;;;5056934;28;45491;-77
2022/10/07 06:27:45;;;;;;;;;19.25;15.50;;;;;;;;5057413;28;45500;-78
2022/10/07 06:30:11;;;;;;;;;18.75;17.50;;;;;;;;5058963;28;45457;-78
2022/10/07 06:32:37;;;;;;;;;20.75;17.75;;;;;;;;5059018;28;45388;-77
2022/10/07 06:35:02;;;;;;;;;23.25;19.25;;;;;;;;5059530;28;45462;-77
2022/10/07 06:37:31;;;;;;;;;19.75;19.00;;;;;;;;5057236;28;45327;-77
2022/10/07 06:39:56;;;;;;;;;20.75;20.25;;;;;;;;5061434;28;45477;-77
2022/10/07 06:42:21;;;;;;;;;30.75;28.50;;;;;;;;5059719;28;45539;-78
2022/10/07 06:44:46;;;;;;;;;31.50;25.00;;;;;;;;5079683;27;45285;-77
2022/10/07 06:47:12;;;;;;;;;26.50;23.50;;;;;;;;5054877;28;45510;-78
2022/10/07 06:49:37;;;;;;;;;27.25;22.75;;;;;;;;5059003;28;45354;-78
2022/10/07 06:52:03;;;;;;;;;27.25;25.50;;;;;;;;5056995;28;45212;-78
2022/10/07 06:54:28;;;;;;;;;24.00;22.00;;;;;;;;5057286;28;45793;-78
2022/10/07 06:56:53;;;;;;;;;25.25;20.00;;;;;;;;5057556;28;45398;-79
2022/10/07 06:59:18;;;;;;;;;31.75;25.75;;;;;;;;5058782;28;45469;-73
2022/10/07 07:01:43;;;;;;;;;26.75;21.50;;;;;;;;5051546;28;45296;-76
2022/10/07 07:04:09;;;;;;;;;27.00;24.25;;;;;;;;5050057;28;45229;-77
2022/10/07 07:06:34;;;;;;;;;21.25;19.00;;;;;;;;5051069;28;46312;-76
2022/10/07 07:09:03;;;;;;;;;26.50;22.50;;;;;;;;5044511;28;45374;-78
2022/10/07 07:11:35;;;;;;;;;22.50;21.00;;;;;;;;5046682;28;45458;-77
2022/10/07 07:14:02;;;;;;;;;27.50;21.00;;;;;;;;5053646;28;45505;-78
2022/10/07 07:16:28;;;;;;;;;33.75;28.00;;;;;;;;5049292;28;45462;-76
2022/10/07 07:18:54;;;;;;;;;25.75;23.00;;;;;;;;5092078;27;45730;-78
2022/10/07 07:21:20;;;;;;;;;27.25;21.00;;;;;;;;5051304;28;45233;-77
2022/10/07 07:23:45;;;;;;;;;27.50;26.25;;;;;;;;5057250;28;46356;-78
2022/10/07 07:26:11;;;;;;;;;25.00;22.50;;;;;;;;5051948;28;46162;-77
2022/10/07 07:28:36;;;;;;;;;22.00;21.00;;;;;;;;5062289;28;44622;-78
2022/10/07 07:31:08;;;;;;;;;22.75;20.75;;;;;;;;5052027;28;45273;-77
2022/10/07 07:33:33;;;;;;;;;22.75;20.50;;;;;;;;5047439;28;45432;-78
2022/10/07 07:35:58;;;;;;;;;26.50;22.75;;;;;;;;5053857;28;45538;-78
2022/10/07 07:38:24;;;;;;;;;27.25;24.25;;;;;;;;5048881;28;45315;-78
2022/10/07 07:40:49;;;;;;;;;30.00;25.25;;;;;;;;5044811;28;45309;-78
2022/10/07 07:43:14;;;;;;;;;24.50;23.50;;;;;;;;5056166;28;45936;-78
2022/10/07 07:45:39;;;;;;;;;32.00;23.00;;;;;;;;5051118;28;45355;-78
2022/10/07 07:48:04;;;;;;;;;31.75;26.25;;;;;;;;5088174;27;45735;-78
2022/10/07 07:50:30;;;;;;;;;32.25;27.00;;;;;;;;5046571;28;45414;-79
2022/10/07 07:52:55;;;;;;;;;32.00;26.50;;;;;;;;5051794;28;45438;-78
2022/10/07 07:55:21;;;;;;;;;34.00;29.75;;;;;;;;5055278;28;45227;-78
2022/10/07 07:57:47;;;;;;;;;28.25;28.25;;;;;;;;5054645;28;45359;-78
2022/10/07 08:00:15;;;;;;;;;33.50;26.75;;;;;;;;5061231;28;45457;-78
2022/10/07 08:02:40;;;;;;;;;28.75;27.00;;;;;;;;5048516;28;45416;-78
2022/10/07 08:05:06;;;;;;;;;28.75;25.00;;;;;;;;5060801;27;47018;-77
2022/10/07 08:07:32;;;;;;;;;34.50;28.25;;;;;;;;5049828;28;45478;-77
2022/10/07 08:09:57;;;;;;;;;34.50;30.75;;;;;;;;5048368;28;45522;-79
2022/10/07 08:12:23;;;;;;;;;33.00;31.25;;;;;;;;5049920;28;45834;-78
2022/10/07 08:14:48;;;;;;;;;31.50;25.50;;;;;;;;5054542;28;47139;-77
2022/10/07 08:17:13;;;;;;;;;30.00;26.25;;;;;;;;5085263;27;45298;-77
2022/10/07 08:19:39;;;;;;;;;33.50;28.75;;;;;;;;5052588;28;45535;-77
2022/10/07 08:22:05;;;;;;;;;37.50;29.75;;;;;;;;5056051;28;46865;-77
2022/10/07 08:24:31;;;;;;;;;33.25;30.00;;;;;;;;5049263;28;45304;-77
2022/10/07 08:26:56;;;;;;;;;36.00;28.75;;;;;;;;5054025;28;46257;-79
2022/10/07 08:29:22;;;;;;;;;33.25;31.00;;;;;;;;5055831;28;45246;-79
2022/10/07 08:31:48;;;;;;;;;36.75;32.25;;;;;;;;5054594;28;47010;-78
2022/10/07 08:34:13;;;;;;;;;35.00;31.25;;;;;;;;5054685;28;45421;-75
2022/10/07 08:36:39;;;;;;;;;34.50;31.50;;;;;;;;5056468;28;45331;-77
2022/10/07 08:39:05;;;;;;;;;31.50;30.00;;;;;;;;5049127;28;45293;-76
2022/10/07 08:41:33;;;;;;;;;36.75;33.75;;;;;;;;5057154;28;45546;-76
2022/10/07 08:44:05;;;;;;;;;30.00;24.75;;;;;;;;5052606;28;45455;-77
2022/10/07 08:46:32;;;;;;;;;31.75;30.75;;;;;;;;5050895;28;45440;-77
2022/10/07 08:48:59;;;;;;;;;29.00;23.75;;;;;;;;5059782;28;45658;-77
2022/10/07 08:51:37;;;;;;;;;26.75;21.25;;;;;;;;5048889;28;45463;-77
2022/10/07 08:54:03;;;;;;;;;32.00;27.25;;;;;;;;5053998;28;45252;-78
2022/10/07 08:56:29;;;;;;;;;26.25;26.25;;;;;;;;5053994;28;45268;-78
2022/10/07 08:59:21;;;;;;;;;37.75;33.25;;;;;;;;5074752;28;45323;-78
2022/10/07 09:01:52;;;;;;;;;29.25;26.50;;;;;;;;5053072;28;46024;-77
2022/10/07 09:04:23;;;;;;;;;36.50;31.00;;;;;;;;5060370;28;45746;-78
2022/10/07 09:07:21;;;;;;;;;37.00;32.00;;;;;;;;5057370;28;45278;-77
2022/10/07 09:09:56;;;;;;;;;39.25;34.25;;;;;;;;5010284;28;46027;-77
2022/10/07 09:12:33;;;;;;;;;28.75;23.75;;;;;;;;5056972;28;45689;-77
2022/10/07 09:15:00;;;;;;;;;35.50;32.50;;;;;;;;5060030;28;47150;-77
2022/10/07 09:17:28;;;;;;;;;31.00;30.00;;;;;;;;5058273;28;45413;-77
2022/10/07 09:19:57;;;;;;;;;28.75;27.25;;;;;;;;5060285;28;45319;-78
2022/10/07 09:22:28;;;;;;;;;22.50;22.00;;;;;;;;5056593;28;46212;-77
2022/10/07 09:24:57;;;;;;;;;31.75;25.50;;;;;;;;5074578;28;47233;-77
2022/10/07 09:27:23;;;;;;;;;24.75;21.25;;;;;;;;5048758;28;45305;-79
2022/10/07 09:29:50;;;;;;;;;30.00;26.75;;;;;;;;5050844;28;45310;-80
2022/10/07 09:32:17;;;;;;;;;30.75;22.25;;;;;;;;5048138;28;45349;-80
2022/10/07 09:34:42;;;;;;;;;13.33;10.67;;;;;;;;5057036;28;45276;-81
2022/10/07 09:37:19;;;;;;;;;11.33;9.67;;;;;;;;5057349;28;45363;-80
2022/10/07 09:39:45;;;;;;;;;11.00;9.33;;;;;;;;5078161;27;45434;-80
2022/10/07 09:42:29;;;;;;;;;7.00;6.00;;;;;;;;5054847;28;45438;-80
2022/10/07 09:44:56;;;;;;;;;6.00;6.00;;;;;;;;5046540;28;45709;-79
2022/10/07 09:47:23;;;;;;;;;8.00;6.00;;;;;;;;5054883;28;45366;-79
2022/10/07 09:49:50;;;;;;;;;6.33;6.00;;;;;;;;5059061;28;45370;-79
2022/10/07 09:52:17;;;;;;;;;5.00;5.00;;;;;;;;5058732;28;45465;-79
2022/10/07 09:54:44;;;;;;;;;4.00;4.00;;;;;;;;5046101;28;46023;-79
2022/10/07 09:57:23;;;;;;;;;8.33;3.33;;;;;;;;5056495;28;45237;-80
2022/10/07 09:59:48;;;;;;;;;4.67;4.67;;;;;;;;5056922;28;45427;-78
2022/10/07 10:02:14;;;;;;;;;5.67;4.00;;;;;;;;5052315;28;45824;-80
2022/10/07 10:04:59;;;;;;;;;6.67;4.00;;;;;;;;5075117;28;46994;-79
2022/10/07 10:07:29;;;;;;;;;5.33;3.33;;;;;;;;5052381;28;45540;-79
2022/10/07 10:10:02;;;;;;;;;8.33;6.00;;;;;;;;5052663;28;45565;-79
2022/10/07 10:12:29;;;;;;;;;5.33;4.33;;;;;;;;5054129;28;47089;-79
2022/10/07 10:14:57;;;;;;;;;5.00;5.00;;;;;;;;5049949;28;45410;-78
2022/10/07 10:17:25;;;;;;;;;6.33;3.67;;;;;;;;5053456;28;45371;-79
2022/10/07 10:19:51;;;;;;;;;4.67;3.00;;;;;;;;5050444;28;45337;-79
2022/10/07 10:22:23;;;;;;;;;8.00;4.00;;;;;;;;5053536;28;45375;-78
2022/10/07 10:27:36;;;;;;;;;3.00;2.33;;;;;;;;5053443;28;45520;-79
2022/10/07 10:30:03;;;;;;;;;3.00;3.00;;;;;;;;5040483;28;45221;-79
2022/10/07 10:32:31;;;;;;;;;32.67;23.67;;;;;;;;5044963;28;45205;-78
2022/10/07 10:35:08;;;;;;;;;8.33;6.67;;;;;;;;5048564;28;45432;-76
2022/10/07 10:37:39;;;;;;;;;3.67;3.67;;;;;;;;5055002;28;45558;-78
2022/10/07 10:40:07;;;;;;;;;5.00;3.67;;;;;;;;5045427;28;45553;-78
2022/10/07 10:42:56;;;;;;;;;6.67;4.00;;;;;;;;5049463;27;45708;-79
2022/10/07 10:45:38;;;;;;;;;7.25;5.00;;;;;;;;5026173;28;47201;-79
2022/10/07 10:48:03;;;;;;;;;6.25;3.00;;;;;;;;5057469;28;45451;-78
2022/10/07 10:50:37;;;;;;;;;3.50;3.00;;;;;;;;5047205;28;45329;-79
2022/10/07 10:53:23;;;;;;;;;4.50;3.00;;;;;;;;5079665;27;45537;-78
2022/10/07 10:56:00;;;;;;;;;3.50;2.75;;;;;;;;5052479;28;46285;-77
2022/10/07 10:58:31;;;;;;;;;10.00;6.67;;;;;;;;5053942;28;45170;-79
2022/10/07 11:01:16;;;;;;;;;6.00;4.75;;;;;;;;5055044;28;45298;-79
2022/10/07 11:03:42;;;;;;;;;1.00;1.00;;;;;;;;5046171;28;46285;-79
2022/10/07 11:06:09;;;;;;;;;3.00;1.75;;;;;;;;5046260;28;45416;-79
2022/10/07 11:08:36;;;;;;;;;28.67;27.67;;;;;;;;5052543;28;45317;-79
2022/10/07 11:11:06;;;;;;;;;4.25;2.00;;;;;;;;5054159;28;45393;-80
2022/10/07 11:13:51;;;;;;;;;7.25;5.00;;;;;;;;5056435;28;45541;-80
2022/10/07 11:16:17;;;;;;;;;7.00;6.75;;;;;;;;5048220;28;45694;-79
2022/10/07 11:19:00;;;;;;;;;6.25;5.75;;;;;;;;5055773;28;45505;-79
2022/10/07 11:21:28;;;;;;;;;6.50;4.00;;;;;;;;5051460;28;45527;-80
2022/10/07 11:24:00;;;;;;;;;5.25;3.50;;;;;;;;5048991;28;45492;-78
2022/10/07 11:26:46;;;;;;;;;2.00;0.50;;;;;;;;5049750;28;47004;-78
2022/10/07 11:29:14;;;;;;;;;5.00;4.00;;;;;;;;5057030;28;45267;-79
2022/10/07 11:31:41;;;;;;;;;5.00;4.75;;;;;;;;5054220;28;45430;-77
2022/10/07 11:34:17;;;;;;;;;2.50;2.50;;;;;;;;5054472;28;45392;-75
2022/10/07 11:36:55;;;;;;;;;4.50;4.25;;;;;;;;5045878;28;46200;-78
2022/10/07 11:39:20;;;;;;;;;31.67;30.33;;;;;;;;5047351;28;45371;-79
2022/10/07 11:41:48;;;;;;;;;2.25;2.25;;;;;;;;5048669;28;45542;-79
2022/10/07 11:44:19;;;;;;;;;4.00;2.00;;;;;;;;5070782;28;45432;-79
2022/10/07 11:46:46;;;;;;;;;2.50;2.00;;;;;;;;5049538;28;45349;-78
2022/10/07 11:49:21;;;;;;;;;2.25;2.00;;;;;;;;5051739;28;45316;-78
2022/10/07 11:51:50;;;;;;;;;4.75;2.00;;;;;;;;5049668;28;45466;-79
2022/10/07 11:54:16;;;;;;;;;1.00;1.00;;;;;;;;5054226;28;45217;-78
2022/10/07 11:56:45;;;;;;;;;2.25;2.00;;;;;;;;5050821;28;45450;-78
2022/10/07 11:59:27;;;;;;;;;1.25;1.25;;;;;;;;5057148;28;45431;-79
2022/10/07 12:01:52;;;;;;;;;0.50;0.50;;;;;;;;5051366;28;45422;-78
2022/10/07 12:04:23;;;;;;;;;3.00;1.00;;;;;;;;5057019;28;45957;-78
2022/10/07 12:07:08;;;;;;;;;15.50;13.25;;;;;;;;5054983;28;45599;-78
2022/10/07 12:09:53;;;;;;;;;4.75;2.75;;;;;;;;5055231;28;45328;-78
2022/10/07 12:12:21;;;;;;;;;3.50;1.00;;;;;;;;5057581;28;45455;-78
2022/10/07 12:14:57;;;;;;;;;5.00;1.25;;;;;;;;5061096;28;45161;-78
2022/10/07 12:17:26;;;;;;;;;4.25;2.00;;;;;;;;5058138;28;45406;-78
2022/10/07 12:20:10;;;;;;;;;1.80;1.80;;;;;;;;5057892;28;45371;-78
2022/10/07 12:22:36;;;;;;;;;2.50;1.00;;;;;;;;5055843;28;46191;-77
2022/10/07 12:25:21;;;;;;;;;2.50;1.75;;;;;;;;5059865;28;45330;-77
2022/10/07 12:27:47;;;;;;;;;3.00;2.00;;;;;;;;5059966;28;46003;-78
2022/10/07 12:30:32;;;;;;;;;1.20;1.00;;;;;;;;5060948;28;45306;-78
2022/10/07 12:32:59;;;;;;;;;3.00;2.75;;;;;;;;5068387;28;45279;-78
2022/10/07 12:35:33;;;;;;;;;2.25;1.00;;;;;;;;5057721;28;46855;-78
2022/10/07 12:38:16;;;;;;;;;0.50;0.00;;;;;;;;5056029;28;45411;-78
2022/10/07 12:40:45;;;;;;;;;3.40;2.00;;;;;;;;5054888;28;45351;-79
2022/10/07 12:43:28;;;;;;;;;2.00;2.00;;;;;;;;5065470;28;45545;-77
2022/10/07 12:45:54;;;;;;;;;2.50;2.50;;;;;;;;5057041;28;45807;-77
2022/10/07 12:48:21;;;;;;;;;1.00;1.00;;;;;;;;5054098;28;46013;-77
2022/10/07 12:50:49;;;;;;;;;4.75;1.50;;;;;;;;5059590;28;45323;-78
2022/10/07 12:53:14;;;;;;;;;1.25;1.00;;;;;;;;5054615;28;45451;-76
2022/10/07 12:55:41;;;;;;;;;4.00;1.75;;;;;;;;5048896;28;45945;-78
2022/10/07 13:01:10;;;;;;;;;2.00;2.00;;;;;;;;5050146;28;45345;-76
2022/10/07 13:04:08;;;;;;;;;2.00;2.00;;;;;;;;5049568;28;45362;-78
2022/10/07 13:06:51;;;;;;;;;3.25;3.25;;;;;;;;5022936;28;45408;-79
2022/10/07 13:09:43;;;;;;;;;3.75;2.00;;;;;;;;5054376;28;45587;-79
2022/10/07 13:12:08;;;;;;;;;2.25;2.25;;;;;;;;5046635;28;45479;-80
2022/10/07 13:14:40;;;;;;;;;3.75;2.75;;;;;;;;5056886;28;45368;-79
2022/10/07 13:17:08;;;;;;;;;2.00;2.00;;;;;;;;5050864;28;45287;-77
2022/10/07 13:19:39;;;;;;;;;1.00;1.00;;;;;;;;5056201;28;45460;-78
2022/10/07 13:22:10;;;;;;;;;1.00;1.00;;;;;;;;5055135;28;45462;-79
2022/10/07 13:24:38;;;;;;;;;2.25;1.00;;;;;;;;5056617;28;45442;-79
2022/10/07 13:27:06;;;;;;;;;3.75;1.25;;;;;;;;5045312;28;45430;-79
2022/10/07 13:29:34;;;;;;;;;4.00;0.50;;;;;;;;5048144;28;45335;-78
2022/10/07 13:32:04;;;;;;;;;2.00;1.00;;;;;;;;5055772;28;45433;-77
2022/10/07 13:34:30;;;;;;;;;1.00;1.00;;;;;;;;5054879;28;45356;-81
2022/10/07 13:36:55;;;;;;;;;2.25;0.75;;;;;;;;5051735;28;45472;-76
2022/10/07 13:39:22;;;;;;;;;1.75;1.75;;;;;;;;5049948;28;46263;-80
2022/10/07 13:41:57;;;;;;;;;2.75;0.75;;;;;;;;5053932;28;45395;-80
2022/10/07 13:44:24;;;;;;;;;7.25;1.75;;;;;;;;5074296;28;45330;-79
2022/10/07 13:46:49;;;;;;;;;2.75;1.50;;;;;;;;5049037;28;45458;-79
2022/10/07 13:49:20;;;;;;;;;2.00;1.00;;;;;;;;5052032;28;46402;-77
2022/10/07 13:51:45;;;;;;;;;3.50;1.75;;;;;;;;5049457;28;45435;-77
2022/10/07 13:54:18;;;;;;;;;3.67;3.00;;;;;;;;5054791;28;45290;-78
2022/10/07 13:56:44;;;;;;;;;1.00;1.00;;;;;;;;5054179;28;45257;-79
2022/10/07 13:59:16;;;;;;;;;1.25;1.25;;;;;;;;5058088;28;45415;-78
2022/10/07 14:01:42;;;;;;;;;0.75;0.75;;;;;;;;5049285;28;45407;-77
2022/10/07 14:04:07;;;;;;;;;2.00;1.00;;;;;;;;5054438;28;45709;-79
2022/10/07 14:06:56;;;;;;;;;2.50;1.75;;;;;;;;5048311;28;45580;-78
2022/10/07 14:09:25;;;;;;;;;3.50;1.00;;;;;;;;5048574;28;45292;-77
2022/10/07 14:11:54;;;;;;;;;3.00;1.25;;;;;;;;5049113;28;45351;-78
2022/10/07 14:14:31;;;;;;;;;2.00;2.00;;;;;;;;5048391;28;45264;-77
2022/10/07 14:16:58;;;;;;;;;1.75;1.50;;;;;;;;5049901;28;45292;-78
2022/10/07 14:19:24;;;;;;;;;2.00;0.00;;;;;;;;5049190;28;45379;-79
2022/10/07 14:21:49;;;;;;;;;1.50;0.00;;;;;;;;5084648;27;45398;-78
2022/10/07 14:24:19;;;;;;;;;2.25;2.00;;;;;;;;5049846;28;45250;-78
2022/10/07 14:26:44;;;;;;;;;2.00;1.00;;;;;;;;5053921;28;45437;-77
2022/10/07 14:29:28;;;;;;;;;1.50;1.00;;;;;;;;5084632;27;45394;-78
2022/10/07 14:37:35;;;;;;;;;0.75;0.75;;;;;;;;5054490;28;45331;-77
2022/10/07 14:40:00;;;;;;;;;2.00;0.00;;;;;;;;5058533;28;45430;-79
2022/10/07 14:42:27;;;;;;;;;0.00;0.00;;;;;;;;5048454;28;45648;-78
2022/10/07 14:44:54;;;;;;;;;1.00;1.00;;;;;;;;5052654;28;45276;-79
2022/10/07 14:47:23;;;;;;;;;2.50;1.00;;;;;;;;5047845;28;45533;-79
2022/10/07 14:49:48;;;;;;;;;2.00;0.50;;;;;;;;5080325;27;46949;-80
2022/10/07 14:52:22;;;;;;;;;0.00;0.00;;;;;;;;5059186;28;45401;-80